createdAt,value
2019-02-05T00:01:39.846Z,0.00
2019-02-05T00:04:10.230Z,0.40
2019-02-05T00:06:40.474Z,0.50
2019-02-05T00:09:14.545Z,0.30
2019-02-05T00:11:44.779Z,0.30
2019-02-05T00:14:15.087Z,0.30
2019-02-05T00:16:45.543Z,0.30
2019-02-05T00:19:15.770Z,0.50
2019-02-05T00:21:46.011Z,0.20
2019-02-05T00:24:16.268Z,0.20
2019-02-05T00:26:46.515Z,0.40
2019-02-05T00:29:17.063Z,0.20
2019-02-05T00:31:47.286Z,0.20
2019-02-05T00:34:17.594Z,0.40
2019-02-05T00:36:47.866Z,0.30
2019-02-05T00:39:18.453Z,0.20
2019-02-05T00:41:48.697Z,0.30
2019-02-05T00:44:18.947Z,0.20
2019-02-05T00:46:49.224Z,0.20
2019-02-05T00:49:19.474Z,0.30
2019-02-05T00:51:49.702Z,0.20
2019-02-05T00:54:19.954Z,0.40
2019-02-05T00:56:53.702Z,0.20
2019-02-05T00:59:23.926Z,0.20
2019-02-05T01:01:54.187Z,0.30
2019-02-05T01:04:24.406Z,0.20
2019-02-05T01:06:54.694Z,0.30
2019-02-05T01:09:24.968Z,0.10
2019-02-05T01:11:55.217Z,-0.10
2019-02-05T01:14:25.490Z,0.10
2019-02-05T01:16:55.723Z,0.00
2019-02-05T01:19:25.972Z,0.10
2019-02-05T01:21:56.197Z,0.30
2019-02-05T01:24:26.670Z,0.00
2019-02-05T01:26:56.899Z,0.20
2019-02-05T01:29:27.587Z,0.10
2019-02-05T01:31:57.887Z,0.20
2019-02-05T01:34:28.101Z,0.10
2019-02-05T01:36:58.745Z,0.10
2019-02-05T01:39:28.998Z,0.00
2019-02-05T01:41:59.549Z,-0.20
2019-02-05T01:44:29.773Z,0.00
2019-02-05T01:47:00.021Z,0.10
2019-02-05T01:49:30.261Z,-0.20
2019-02-05T01:52:00.570Z,-0.10
2019-02-05T01:54:30.805Z,0.10
2019-02-05T01:57:01.034Z,-0.10
2019-02-05T01:59:31.287Z,0.00
2019-02-05T02:02:01.490Z,0.00
2019-02-05T02:04:32.313Z,0.10
2019-02-05T02:07:03.061Z,0.00
2019-02-05T02:09:33.350Z,0.00
2019-02-05T02:12:03.793Z,-0.20
2019-02-05T02:14:34.060Z,-0.20
2019-02-05T02:17:04.257Z,0.00
2019-02-05T02:19:34.641Z,-0.10
2019-02-05T02:22:04.881Z,-0.10
2019-02-05T02:24:35.114Z,-0.20
2019-02-05T02:27:05.423Z,0.10
2019-02-05T02:29:35.653Z,0.00
2019-02-05T02:32:06.277Z,0.10
2019-02-05T02:34:36.531Z,0.00
2019-02-05T02:37:06.771Z,-0.20
2019-02-05T02:39:37.057Z,0.00
2019-02-05T02:42:07.296Z,-0.20
2019-02-05T02:44:37.586Z,-0.20
2019-02-05T02:47:08.045Z,-0.30
2019-02-05T02:49:38.249Z,-0.20
2019-02-05T02:52:08.498Z,-0.40
2019-02-05T02:54:38.787Z,-0.30
2019-02-05T02:57:09.038Z,-0.30
2019-02-05T02:59:39.288Z,-0.20
2019-02-05T03:02:09.577Z,-0.50
2019-02-05T03:04:39.856Z,-0.30
2019-02-05T03:07:10.130Z,-0.30
2019-02-05T03:09:40.486Z,-0.30
2019-02-05T03:12:10.704Z,-0.10
2019-02-05T03:14:40.947Z,-0.40
2019-02-05T03:17:11.182Z,-0.40
2019-02-05T03:19:41.422Z,-0.30
2019-02-05T03:22:11.703Z,-0.30
2019-02-05T03:24:41.959Z,-0.30
2019-02-05T03:27:18.131Z,-0.10
2019-02-05T03:29:44.105Z,-0.10
2019-02-05T03:32:14.647Z,-0.20
2019-02-05T03:34:44.846Z,-0.30
2019-02-05T03:37:15.129Z,-0.30
2019-02-05T03:39:45.434Z,-0.30
2019-02-05T03:42:15.678Z,-0.30
2019-02-05T03:44:45.915Z,-0.30
2019-02-05T03:47:16.699Z,-0.20
2019-02-05T03:49:46.945Z,-0.20
2019-02-05T03:52:28.445Z,-0.40
2019-02-05T03:55:35.463Z,-0.20
2019-02-05T03:58:42.483Z,-0.30
2019-02-05T04:01:56.806Z,-0.10
2019-02-05T04:05:04.215Z,-0.20
2019-02-05T04:07:51.978Z,-0.40
2019-02-05T04:10:59.350Z,-0.30
2019-02-05T04:13:46.561Z,-0.20
2019-02-05T04:16:53.655Z,-0.40
2019-02-05T04:20:03.062Z,-0.30
2019-02-05T04:22:59.953Z,-0.40
2019-02-05T04:26:00.533Z,-0.40
2019-02-05T04:29:08.669Z,-0.50
2019-02-05T04:32:18.945Z,-0.40
2019-02-05T04:35:13.541Z,-0.50
2019-02-05T04:38:34.463Z,-0.40
2019-02-05T04:41:44.869Z,-0.50
2019-02-05T04:45:05.721Z,-0.60
2019-02-05T04:48:16.056Z,-0.30
2019-02-05T04:51:12.493Z,-0.50
2019-02-05T04:54:13.219Z,-0.50
2019-02-05T04:57:06.590Z,-0.40
2019-02-05T05:00:12.560Z,-0.50
2019-02-05T05:03:35.788Z,-0.40
2019-02-05T05:06:38.277Z,-0.70
2019-02-05T05:09:55.254Z,-0.40
2019-02-05T05:12:26.716Z,-0.40
2019-02-05T05:14:56.982Z,-0.60
2019-02-05T05:17:27.362Z,-0.60
2019-02-05T05:19:57.611Z,-0.40
2019-02-05T05:22:27.883Z,-0.50
2019-02-05T05:24:59.067Z,-0.50
2019-02-05T05:27:29.505Z,-0.50
2019-02-05T05:29:59.762Z,-0.40
2019-02-05T05:32:30.075Z,-0.50
2019-02-05T05:35:00.383Z,-0.40
2019-02-05T05:37:30.599Z,-0.50
2019-02-05T05:40:00.950Z,-0.40
2019-02-05T05:42:31.234Z,-0.50
2019-02-05T05:45:01.501Z,-0.50
2019-02-05T05:47:31.734Z,-0.50
2019-02-05T05:50:01.945Z,-0.60
2019-02-05T05:52:32.201Z,-0.30
2019-02-05T05:55:02.458Z,-0.50
2019-02-05T05:57:32.839Z,-0.20
2019-02-05T06:00:03.297Z,-0.20
2019-02-05T06:02:33.549Z,-0.40
2019-02-05T06:05:03.793Z,-0.50
2019-02-05T06:07:34.022Z,-0.40
2019-02-05T06:10:07.101Z,-0.30
2019-02-05T06:12:36.939Z,-0.30
2019-02-05T06:15:08.216Z,-0.50
2019-02-05T06:17:38.495Z,-0.20
2019-02-05T06:20:11.606Z,-0.20
2019-02-05T06:22:41.853Z,-0.20
2019-02-05T06:25:12.486Z,-0.10
2019-02-05T06:27:42.778Z,-0.20
2019-02-05T06:30:14.049Z,-0.30
2019-02-05T06:32:44.273Z,0.00
2019-02-05T06:35:14.533Z,-0.30
2019-02-05T06:37:44.785Z,-0.30
2019-02-05T06:40:16.553Z,-0.10
2019-02-05T06:42:46.792Z,-0.10
2019-02-05T06:45:17.048Z,-0.20
2019-02-05T06:47:47.322Z,-0.30
2019-02-05T06:50:17.778Z,-0.10
2019-02-05T06:52:48.145Z,0.10
2019-02-05T06:55:18.415Z,0.00
2019-02-05T06:57:48.689Z,0.10
2019-02-05T07:00:21.013Z,-0.10
2019-02-05T07:02:53.073Z,0.00
2019-02-05T07:05:23.125Z,0.00
2019-02-05T07:07:54.089Z,0.00
2019-02-05T07:10:24.393Z,0.10
2019-02-05T07:12:54.638Z,0.20
2019-02-05T07:15:24.866Z,0.10
2019-02-05T07:17:55.125Z,0.20
2019-02-05T07:20:25.345Z,0.40
2019-02-05T07:22:56.037Z,0.20
2019-02-05T07:25:26.269Z,0.20
2019-02-05T07:27:56.555Z,0.30
2019-02-05T07:30:26.806Z,0.30
2019-02-05T07:32:57.033Z,0.30
2019-02-05T07:35:27.261Z,0.40
2019-02-05T07:37:57.914Z,0.40
2019-02-05T07:40:28.115Z,0.50
2019-02-05T07:42:58.362Z,0.70
2019-02-05T07:45:28.602Z,0.80
2019-02-05T07:47:58.843Z,0.70
2019-02-05T07:50:29.114Z,0.60
2019-02-05T07:52:59.366Z,0.70
2019-02-05T07:55:29.694Z,0.80
2019-02-05T07:57:59.925Z,0.60
2019-02-05T08:00:30.181Z,0.70
2019-02-05T08:03:00.387Z,0.90
2019-02-05T08:05:32.049Z,0.90
2019-02-05T08:08:02.425Z,1.00
2019-02-05T08:10:33.017Z,1.10
2019-02-05T08:13:03.251Z,1.40
2019-02-05T08:15:34.222Z,1.10
2019-02-05T08:18:04.553Z,1.00
2019-02-05T08:20:34.793Z,1.10
2019-02-05T08:23:05.098Z,1.20
2019-02-05T08:25:35.436Z,1.20
2019-02-05T08:28:06.917Z,1.30
2019-02-05T08:30:47.785Z,1.10
2019-02-05T08:33:18.084Z,1.20
2019-02-05T08:35:48.293Z,1.20
2019-02-05T08:38:18.562Z,1.10
2019-02-05T08:40:49.084Z,1.20
2019-02-05T08:43:19.327Z,1.20
2019-02-05T08:45:56.671Z,1.30
2019-02-05T08:48:21.457Z,1.40
2019-02-05T08:50:51.696Z,1.30
2019-02-05T08:53:21.938Z,1.50
2019-02-05T08:55:52.562Z,1.60
2019-02-05T08:58:30.541Z,1.70
2019-02-05T09:00:54.794Z,1.80
2019-02-05T09:03:25.095Z,2.00
2019-02-05T09:05:55.369Z,1.70
2019-02-05T09:08:25.614Z,1.50
2019-02-05T09:10:56.088Z,1.70
2019-02-05T09:13:26.334Z,1.70
2019-02-05T09:15:56.579Z,1.60
2019-02-05T09:18:26.808Z,1.70
2019-02-05T09:20:57.029Z,1.80
2019-02-05T09:23:27.257Z,2.10
2019-02-05T09:25:57.814Z,2.10
2019-02-05T09:28:28.039Z,2.40
2019-02-05T09:30:58.312Z,2.70
2019-02-05T09:33:28.850Z,2.20
2019-02-05T09:35:59.082Z,2.30
2019-02-05T09:38:29.296Z,2.20
2019-02-05T09:41:00.113Z,2.40
2019-02-05T09:43:30.330Z,2.60
2019-02-05T09:46:00.637Z,2.40
2019-02-05T09:48:30.886Z,2.20
2019-02-05T09:51:01.133Z,2.40
2019-02-05T09:53:31.391Z,2.20
2019-02-05T09:56:01.938Z,2.30
2019-02-05T09:58:32.161Z,2.50
2019-02-05T10:01:02.753Z,2.50
2019-02-05T10:03:32.964Z,2.50
2019-02-05T10:06:03.205Z,2.70
2019-02-05T10:08:33.432Z,2.90
2019-02-05T10:11:03.995Z,2.60
2019-02-05T10:13:34.209Z,2.70
2019-02-05T10:16:04.509Z,2.70
2019-02-05T10:18:34.762Z,2.70
2019-02-05T10:21:05.054Z,2.70
2019-02-05T10:23:35.298Z,3.10
2019-02-05T10:26:05.910Z,3.20
2019-02-05T10:28:36.157Z,2.70
2019-02-05T10:31:06.430Z,2.80
2019-02-05T10:33:36.637Z,2.70
2019-02-05T10:36:06.861Z,2.70
2019-02-05T10:38:37.118Z,2.60
2019-02-05T10:41:07.758Z,2.40
2019-02-05T10:43:38.034Z,2.40
2019-02-05T10:46:08.618Z,2.10
2019-02-05T10:48:38.902Z,2.40
2019-02-05T10:51:09.111Z,2.30
2019-02-05T10:53:39.358Z,2.20
2019-02-05T10:56:10.002Z,2.20
2019-02-05T10:58:40.242Z,2.00
2019-02-05T11:01:10.572Z,1.90
2019-02-05T11:03:40.918Z,2.30
2019-02-05T11:06:11.215Z,2.30
2019-02-05T11:08:41.462Z,2.40
2019-02-05T11:11:11.912Z,2.40
2019-02-05T11:13:42.154Z,2.70
2019-02-05T11:16:12.482Z,2.70
2019-02-05T11:18:42.682Z,2.30
2019-02-05T11:21:12.939Z,2.40
2019-02-05T11:23:43.155Z,2.30
2019-02-05T11:26:13.383Z,2.90
2019-02-05T11:28:43.679Z,2.90
2019-02-05T11:31:13.954Z,3.00
2019-02-05T11:33:44.166Z,2.90
2019-02-05T11:36:14.441Z,3.30
2019-02-05T11:38:45.275Z,3.10
2019-02-05T11:41:15.556Z,2.90
2019-02-05T11:43:45.783Z,2.90
2019-02-05T11:46:16.334Z,2.70
2019-02-05T11:48:46.595Z,2.30
2019-02-05T11:51:16.895Z,2.00
2019-02-05T11:53:47.146Z,1.80
2019-02-05T11:56:17.585Z,1.40
2019-02-05T11:58:47.803Z,1.80
2019-02-05T12:01:38.362Z,1.70
2019-02-05T12:04:00.762Z,2.00
2019-02-05T12:06:31.015Z,1.60
2019-02-05T12:09:01.216Z,1.70
2019-02-05T12:11:31.728Z,1.90
2019-02-05T12:14:01.951Z,1.90
2019-02-05T12:16:32.231Z,1.90
2019-02-05T12:19:02.469Z,1.90
2019-02-05T12:21:32.722Z,2.20
2019-02-05T12:24:02.950Z,1.90
2019-02-05T12:26:33.501Z,2.20
2019-02-05T12:29:03.730Z,2.10
2019-02-05T12:31:33.994Z,2.10
2019-02-05T12:34:04.242Z,2.30
2019-02-05T12:36:34.481Z,2.20
2019-02-05T12:39:08.749Z,2.10
2019-02-05T12:41:39.067Z,2.00
2019-02-05T12:44:09.302Z,2.10
2019-02-05T12:46:39.539Z,1.90
2019-02-05T12:49:09.779Z,2.10
2019-02-05T12:51:40.023Z,2.00
2019-02-05T12:54:10.281Z,2.20
2019-02-05T12:56:40.666Z,2.20
2019-02-05T12:59:10.927Z,2.20
2019-02-05T13:01:41.224Z,1.80
2019-02-05T13:04:11.531Z,1.90
2019-02-05T13:06:41.810Z,2.20
2019-02-05T13:09:12.557Z,2.10
2019-02-05T13:11:42.814Z,1.80
2019-02-05T13:14:13.053Z,1.90
2019-02-05T13:16:43.326Z,1.90
2019-02-05T13:19:13.551Z,1.90
2019-02-05T13:21:43.814Z,2.00
2019-02-05T13:24:16.545Z,1.90
2019-02-05T13:26:45.937Z,1.90
2019-02-05T13:29:16.349Z,1.70
2019-02-05T13:31:46.577Z,1.90
2019-02-05T13:34:16.833Z,1.90
2019-02-05T13:36:47.078Z,1.60
2019-02-05T13:39:17.340Z,2.00
2019-02-05T13:41:47.891Z,2.00
2019-02-05T13:44:18.207Z,2.10
2019-02-05T13:46:48.465Z,1.90
2019-02-05T13:49:19.227Z,2.00
2019-02-05T13:51:49.474Z,2.20
2019-02-05T13:54:19.725Z,1.90
2019-02-05T13:57:01.602Z,2.00
2019-02-05T13:59:31.881Z,2.00
2019-02-05T14:02:02.337Z,2.00
2019-02-05T14:04:32.598Z,2.10
2019-02-05T14:07:02.871Z,2.10
2019-02-05T14:09:33.184Z,2.20
2019-02-05T14:12:03.441Z,2.20
2019-02-05T14:14:33.883Z,2.00
2019-02-05T14:17:04.226Z,1.80
2019-02-05T14:19:34.447Z,1.60
2019-02-05T14:22:04.754Z,1.60
2019-02-05T14:24:34.965Z,1.50
2019-02-05T14:27:05.246Z,1.60
2019-02-05T14:29:35.966Z,1.70
2019-02-05T14:32:06.196Z,1.60
2019-02-05T14:34:36.449Z,1.50
2019-02-05T14:37:06.731Z,1.60
2019-02-05T14:39:36.976Z,1.80
2019-02-05T14:42:07.242Z,1.70
2019-02-05T14:44:37.785Z,1.60
2019-02-05T14:47:08.018Z,1.70
2019-02-05T14:49:38.341Z,1.80
2019-02-05T14:52:08.542Z,1.80
2019-02-05T14:54:38.802Z,1.40
2019-02-05T14:57:09.022Z,1.50
2019-02-05T14:59:39.278Z,1.40
2019-02-05T15:02:09.588Z,1.50
2019-02-05T15:04:39.883Z,1.40
2019-02-05T15:07:10.111Z,1.30
2019-02-05T15:09:40.321Z,1.30
2019-02-05T15:12:10.855Z,1.20
2019-02-05T15:14:41.095Z,1.40
2019-02-05T15:17:11.345Z,1.10
2019-02-05T15:19:41.579Z,1.30
2019-02-05T15:22:11.871Z,1.10
2019-02-05T15:24:42.499Z,1.10
2019-02-05T15:27:12.758Z,1.10
2019-02-05T15:29:42.966Z,1.10
2019-02-05T15:32:14.923Z,1.10
2019-02-05T15:34:45.145Z,0.90
2019-02-05T15:37:15.366Z,1.30
2019-02-05T15:39:45.854Z,1.20
2019-02-05T15:42:16.081Z,1.00
2019-02-05T15:44:46.277Z,1.20
2019-02-05T15:47:16.569Z,1.10
2019-02-05T15:49:46.785Z,1.10
2019-02-05T15:52:17.477Z,0.90
2019-02-05T15:54:47.705Z,0.70
2019-02-05T15:57:17.965Z,1.00
2019-02-05T15:59:48.168Z,0.70
2019-02-05T16:02:18.451Z,0.90
2019-02-05T16:04:48.687Z,0.80
2019-02-05T16:07:19.041Z,1.00
2019-02-05T16:09:49.331Z,0.80
2019-02-05T16:12:19.561Z,0.60
2019-02-05T16:14:49.830Z,0.70
2019-02-05T16:17:35.266Z,0.60
2019-02-05T16:20:05.606Z,0.40
2019-02-05T16:22:35.898Z,0.40
2019-02-05T16:25:07.474Z,0.40
2019-02-05T16:27:37.705Z,0.10
2019-02-05T16:30:13.894Z,0.30
2019-02-05T16:32:44.423Z,0.10
2019-02-05T16:35:14.707Z,0.10
2019-02-05T16:37:44.930Z,0.10
2019-02-05T16:40:20.584Z,0.10
2019-02-05T16:42:50.930Z,0.00
2019-02-05T16:45:23.319Z,-0.10
2019-02-05T16:47:53.626Z,-0.10
2019-02-05T16:50:32.441Z,0.10
2019-02-05T16:53:02.948Z,0.00
2019-02-05T16:55:33.633Z,-0.20
2019-02-05T16:58:03.874Z,-0.20
2019-02-05T17:00:34.476Z,-0.20
2019-02-05T17:03:06.555Z,-0.20
2019-02-05T17:05:38.094Z,-0.60
2019-02-05T17:08:08.529Z,-0.40
2019-02-05T17:10:38.791Z,-0.80
2019-02-05T17:13:11.669Z,-1.00
2019-02-05T17:15:40.985Z,-1.00
2019-02-05T17:18:11.281Z,-0.90
2019-02-05T17:20:41.515Z,-0.90
2019-02-05T17:23:11.742Z,-0.70
2019-02-05T17:25:42.171Z,-0.80
2019-02-05T17:28:12.470Z,-0.60
2019-02-05T17:30:42.850Z,-0.40
2019-02-05T17:33:13.154Z,-0.60
2019-02-05T17:35:43.442Z,-0.40
2019-02-05T17:38:13.722Z,-0.50
2019-02-05T17:40:43.960Z,-0.30
2019-02-05T17:43:17.910Z,-0.50
2019-02-05T17:45:48.172Z,-0.20
2019-02-05T17:48:18.590Z,-0.10
2019-02-05T17:50:48.863Z,0.00
2019-02-05T17:53:19.101Z,0.10
2019-02-05T17:55:49.398Z,0.00
2019-02-05T17:58:19.634Z,0.20
2019-02-05T18:00:57.210Z,0.30
2019-02-05T18:03:27.428Z,0.10
2019-02-05T18:05:57.667Z,0.20
2019-02-05T18:08:27.930Z,0.30
2019-02-05T18:10:59.553Z,0.10
2019-02-05T18:13:29.804Z,0.30
2019-02-05T18:16:04.158Z,0.30
2019-02-05T18:18:34.382Z,0.10
2019-02-05T18:21:04.744Z,0.10
2019-02-05T18:23:34.957Z,0.10
2019-02-05T18:26:05.213Z,0.30
2019-02-05T18:28:35.498Z,0.20
2019-02-05T18:31:05.786Z,0.50
2019-02-05T18:33:36.029Z,0.50
2019-02-05T18:36:06.405Z,0.30
2019-02-05T18:38:36.913Z,0.30
2019-02-05T18:41:07.138Z,0.30
2019-02-05T18:43:37.590Z,0.20
2019-02-05T18:46:07.947Z,0.20
2019-02-05T18:48:39.034Z,0.30
2019-02-05T18:51:09.238Z,0.20
2019-02-05T18:53:39.762Z,0.20
2019-02-05T18:56:10.291Z,0.30
2019-02-05T18:58:40.528Z,0.40
2019-02-05T19:01:10.815Z,0.50
2019-02-05T19:03:41.049Z,0.30
2019-02-05T19:06:11.328Z,0.20
2019-02-05T19:08:41.579Z,0.50
2019-02-05T19:11:12.125Z,0.40
2019-02-05T19:14:00.947Z,0.20
2019-02-05T19:16:31.359Z,0.50
2019-02-05T19:19:01.882Z,0.50
2019-02-05T19:21:32.666Z,0.20
2019-02-05T19:24:17.414Z,0.20
2019-02-05T19:26:52.822Z,0.30
2019-02-05T19:29:23.274Z,0.20
2019-02-05T19:31:53.917Z,0.40
2019-02-05T19:34:25.454Z,0.30
2019-02-05T19:36:56.026Z,0.30
2019-02-05T19:39:26.598Z,0.40
2019-02-05T19:42:14.024Z,0.60
2019-02-05T19:44:49.198Z,0.50
2019-02-05T19:47:24.101Z,0.70
2019-02-05T19:49:57.170Z,0.70
2019-02-05T19:52:28.203Z,0.50
2019-02-05T19:54:58.714Z,0.50
2019-02-05T19:57:29.676Z,0.70
2019-02-05T20:00:00.343Z,0.70
2019-02-05T20:02:30.711Z,0.60
2019-02-05T20:05:01.192Z,0.70
2019-02-05T20:07:31.593Z,0.60
2019-02-05T20:10:02.067Z,0.70
2019-02-05T20:12:32.682Z,0.70
2019-02-05T20:15:03.087Z,0.70
2019-02-05T20:17:33.622Z,0.70
2019-02-05T20:20:04.781Z,0.60
2019-02-05T20:22:35.191Z,0.90
2019-02-05T20:25:06.678Z,0.70
2019-02-05T20:27:37.138Z,0.80
2019-02-05T20:30:08.599Z,0.80
2019-02-05T20:32:39.078Z,0.70
2019-02-05T20:35:09.745Z,0.70
2019-02-05T20:37:40.206Z,1.00
2019-02-05T20:40:15.393Z,0.60
2019-02-05T20:42:45.845Z,0.70
2019-02-05T20:45:16.452Z,0.80
2019-02-05T20:48:06.456Z,0.80
2019-02-05T20:50:37.479Z,0.70
2019-02-05T20:53:14.071Z,0.80
2019-02-05T20:55:40.247Z,0.70
2019-02-05T20:58:10.889Z,0.80
2019-02-05T21:00:41.498Z,0.70
2019-02-05T21:03:12.025Z,0.80
2019-02-05T21:05:42.878Z,0.90
2019-02-05T21:08:13.340Z,1.00
2019-02-05T21:10:43.844Z,0.70
2019-02-05T21:13:29.898Z,0.70
2019-02-05T21:16:00.303Z,0.80
2019-02-05T21:18:34.008Z,0.80
2019-02-05T21:21:04.517Z,0.80
2019-02-05T21:23:37.915Z,1.00
2019-02-05T21:26:07.450Z,0.90
2019-02-05T21:28:37.916Z,0.80
2019-02-05T21:31:08.861Z,0.90
2019-02-05T21:33:39.308Z,1.10
2019-02-05T21:36:09.869Z,0.80
2019-02-05T21:38:40.361Z,0.80
2019-02-05T21:41:10.829Z,0.90
2019-02-05T21:43:41.287Z,0.90
2019-02-05T21:46:12.062Z,0.80
2019-02-05T21:48:42.517Z,1.00
2019-02-05T21:51:12.998Z,1.00
2019-02-05T21:53:43.456Z,1.20
2019-02-05T21:56:13.985Z,1.00
2019-02-05T21:58:44.438Z,1.00
2019-02-05T22:01:14.989Z,1.10
2019-02-05T22:03:45.517Z,0.90
2019-02-05T22:06:15.941Z,1.10
2019-02-05T22:08:47.312Z,0.90
2019-02-05T22:11:17.790Z,0.90
2019-02-05T22:13:48.710Z,1.10
2019-02-05T22:16:19.817Z,1.30
2019-02-05T22:18:50.287Z,1.30
2019-02-05T22:21:21.243Z,1.20
2019-02-05T22:23:51.655Z,1.00
2019-02-05T22:26:22.093Z,0.80
2019-02-05T22:28:53.108Z,0.90
2019-02-05T22:31:23.525Z,0.90
2019-02-05T22:33:53.970Z,1.10
2019-02-05T22:36:24.483Z,0.90
2019-02-05T22:38:57.417Z,1.10
2019-02-05T22:41:26.952Z,1.10
2019-02-05T22:43:57.402Z,1.00
2019-02-05T22:46:27.897Z,1.00
2019-02-05T22:48:58.331Z,0.90
2019-02-05T22:51:28.903Z,1.10
2019-02-05T22:53:59.317Z,1.10
2019-02-05T22:56:29.857Z,1.10
2019-02-05T22:59:00.734Z,1.20
2019-02-05T23:01:58.417Z,0.80
2019-02-05T23:05:08.029Z,0.90
2019-02-05T23:07:38.897Z,0.90
2019-02-05T23:10:39.392Z,1.10
2019-02-05T23:13:12.736Z,0.90
2019-02-05T23:15:46.193Z,1.00
2019-02-05T23:18:16.942Z,0.90
2019-02-05T23:20:47.591Z,0.90
2019-02-05T23:23:18.087Z,0.90
2019-02-05T23:25:48.630Z,0.70
2019-02-05T23:28:19.144Z,1.10
2019-02-05T23:30:49.679Z,1.10
2019-02-05T23:33:20.186Z,1.10
2019-02-05T23:35:50.634Z,0.80
2019-02-05T23:38:21.095Z,0.80
2019-02-05T23:40:51.489Z,1.20
2019-02-05T23:43:21.941Z,0.90
2019-02-05T23:46:01.488Z,0.80
2019-02-05T23:48:24.580Z,0.90
2019-02-05T23:50:55.046Z,1.00
2019-02-05T23:53:25.506Z,1.20
2019-02-05T23:56:25.374Z,1.10
2019-02-05T23:58:50.230Z,1.10
